sensor_id;sensor_type;location;lat;lon;timestamp;temperature;humidity
42019;DHT22;27703;51.980;5.848;2022-09-29T00:00:38;9.30;99.90
42019;DHT22;27703;51.980;5.848;2022-09-29T00:03:04;9.30;99.90
42019;DHT22;27703;51.980;5.848;2022-09-29T00:05:30;9.30;99.90
42019;DHT22;27703;51.980;5.848;2022-09-29T00:07:56;9.30;99.90
42019;DHT22;27703;51.980;5.848;2022-09-29T00:10:22;9.30;99.90
42019;DHT22;27703;51.980;5.848;2022-09-29T00:12:48;9.20;99.90
42019;DHT22;27703;51.980;5.848;2022-09-29T00:15:14;9.20;99.90
42019;DHT22;27703;51.980;5.848;2022-09-29T00:17:39;9.20;99.90
42019;DHT22;27703;51.980;5.848;2022-09-29T00:20:05;9.10;99.90
42019;DHT22;27703;51.980;5.848;2022-09-29T00:22:32;9.00;99.90
42019;DHT22;27703;51.980;5.848;2022-09-29T00:24:57;9.00;99.90
42019;DHT22;27703;51.980;5.848;2022-09-29T00:27:23;9.00;99.90
42019;DHT22;27703;51.980;5.848;2022-09-29T00:29:49;8.90;99.90
42019;DHT22;27703;51.980;5.848;2022-09-29T00:32:14;8.90;99.90
42019;DHT22;27703;51.980;5.848;2022-09-29T00:34:40;8.90;99.90
42019;DHT22;27703;51.980;5.848;2022-09-29T00:37:06;8.90;99.90
42019;DHT22;27703;51.980;5.848;2022-09-29T00:39:31;9.00;99.90
42019;DHT22;27703;51.980;5.848;2022-09-29T00:41:57;9.00;99.90
42019;DHT22;27703;51.980;5.848;2022-09-29T00:47:13;9.00;99.90
42019;DHT22;27703;51.980;5.848;2022-09-29T00:49:53;9.00;99.90
42019;DHT22;27703;51.980;5.848;2022-09-29T00:52:31;9.00;99.90
42019;DHT22;27703;51.980;5.848;2022-09-29T00:57:57;9.00;99.90
42019;DHT22;27703;51.980;5.848;2022-09-29T01:00:24;8.90;99.90
42019;DHT22;27703;51.980;5.848;2022-09-29T01:02:59;8.90;99.90
42019;DHT22;27703;51.980;5.848;2022-09-29T01:05:32;8.80;99.90
42019;DHT22;27703;51.980;5.848;2022-09-29T01:08:08;8.80;99.90
42019;DHT22;27703;51.980;5.848;2022-09-29T01:10:38;8.80;99.90
42019;DHT22;27703;51.980;5.848;2022-09-29T01:13:04;8.80;99.90
42019;DHT22;27703;51.980;5.848;2022-09-29T01:15:30;8.80;99.90
42019;DHT22;27703;51.980;5.848;2022-09-29T01:17:56;8.80;99.90
42019;DHT22;27703;51.980;5.848;2022-09-29T01:20:22;8.80;99.90
42019;DHT22;27703;51.980;5.848;2022-09-29T01:23:47;8.80;99.90
42019;DHT22;27703;51.980;5.848;2022-09-29T01:26:28;8.80;99.90
42019;DHT22;27703;51.980;5.848;2022-09-29T01:34:28;8.70;99.90
42019;DHT22;27703;51.980;5.848;2022-09-29T01:39:42;8.70;99.90
42019;DHT22;27703;51.980;5.848;2022-09-29T01:47:24;8.60;99.90
42019;DHT22;27703;51.980;5.848;2022-09-29T01:49:59;8.50;99.90
42019;DHT22;27703;51.980;5.848;2022-09-29T01:52:29;8.50;99.90
42019;DHT22;27703;51.980;5.848;2022-09-29T01:55:17;8.50;99.90
42019;DHT22;27703;51.980;5.848;2022-09-29T02:00:17;8.50;99.90
42019;DHT22;27703;51.980;5.848;2022-09-29T02:03:00;8.40;99.90
42019;DHT22;27703;51.980;5.848;2022-09-29T02:05:38;8.50;99.90
42019;DHT22;27703;51.980;5.848;2022-09-29T02:08:15;8.50;99.90
42019;DHT22;27703;51.980;5.848;2022-09-29T02:11:21;8.50;99.90
42019;DHT22;27703;51.980;5.848;2022-09-29T02:13:40;8.50;99.90
42019;DHT22;27703;51.980;5.848;2022-09-29T02:16:11;8.50;99.90
42019;DHT22;27703;51.980;5.848;2022-09-29T02:21:26;8.50;99.90
42019;DHT22;27703;51.980;5.848;2022-09-29T02:23:52;8.50;99.90
42019;DHT22;27703;51.980;5.848;2022-09-29T02:26:19;8.50;99.90
42019;DHT22;27703;51.980;5.848;2022-09-29T02:28:46;8.50;99.90
42019;DHT22;27703;51.980;5.848;2022-09-29T02:31:13;8.40;99.90
42019;DHT22;27703;51.980;5.848;2022-09-29T02:33:38;8.40;99.90
42019;DHT22;27703;51.980;5.848;2022-09-29T02:39:34;8.40;99.90
42019;DHT22;27703;51.980;5.848;2022-09-29T02:50:23;8.30;99.90
42019;DHT22;27703;51.980;5.848;2022-09-29T02:55:48;8.30;99.90
42019;DHT22;27703;51.980;5.848;2022-09-29T02:58:28;8.30;99.90
42019;DHT22;27703;51.980;5.848;2022-09-29T03:00:56;8.30;99.90
42019;DHT22;27703;51.980;5.848;2022-09-29T03:03:22;8.30;99.90
42019;DHT22;27703;51.980;5.848;2022-09-29T03:05:48;8.30;99.90
42019;DHT22;27703;51.980;5.848;2022-09-29T03:08:14;8.30;99.90
42019;DHT22;27703;51.980;5.848;2022-09-29T03:10:39;8.30;99.90
42019;DHT22;27703;51.980;5.848;2022-09-29T03:13:05;8.30;99.90
42019;DHT22;27703;51.980;5.848;2022-09-29T03:15:30;8.20;99.90
42019;DHT22;27703;51.980;5.848;2022-09-29T03:17:56;8.20;99.90
42019;DHT22;27703;51.980;5.848;2022-09-29T03:20:22;8.20;99.90
42019;DHT22;27703;51.980;5.848;2022-09-29T03:22:47;8.20;99.90
42019;DHT22;27703;51.980;5.848;2022-09-29T03:25:13;8.20;99.90
42019;DHT22;27703;51.980;5.848;2022-09-29T03:27:40;8.20;99.90
42019;DHT22;27703;51.980;5.848;2022-09-29T03:30:06;8.20;99.90
42019;DHT22;27703;51.980;5.848;2022-09-29T03:32:32;8.20;99.90
42019;DHT22;27703;51.980;5.848;2022-09-29T03:34:57;8.20;99.90
42019;DHT22;27703;51.980;5.848;2022-09-29T03:37:23;8.10;99.90
42019;DHT22;27703;51.980;5.848;2022-09-29T03:39:49;8.10;99.90
42019;DHT22;27703;51.980;5.848;2022-09-29T03:42:14;8.10;99.90
42019;DHT22;27703;51.980;5.848;2022-09-29T03:44:40;8.10;99.90
42019;DHT22;27703;51.980;5.848;2022-09-29T03:47:06;8.10;99.90
42019;DHT22;27703;51.980;5.848;2022-09-29T03:49:31;8.00;99.90
42019;DHT22;27703;51.980;5.848;2022-09-29T03:51:57;8.00;99.90
42019;DHT22;27703;51.980;5.848;2022-09-29T03:54:23;8.00;99.90
42019;DHT22;27703;51.980;5.848;2022-09-29T03:56:50;8.00;99.90
42019;DHT22;27703;51.980;5.848;2022-09-29T03:59:16;8.00;99.90
42019;DHT22;27703;51.980;5.848;2022-09-29T04:01:41;8.00;99.90
42019;DHT22;27703;51.980;5.848;2022-09-29T04:04:08;8.00;99.90
42019;DHT22;27703;51.980;5.848;2022-09-29T04:06:34;8.00;99.90
42019;DHT22;27703;51.980;5.848;2022-09-29T04:09:00;8.00;99.90
42019;DHT22;27703;51.980;5.848;2022-09-29T04:11:26;7.90;99.90
42019;DHT22;27703;51.980;5.848;2022-09-29T04:13:52;7.90;99.90
42019;DHT22;27703;51.980;5.848;2022-09-29T04:16:17;7.90;99.90
42019;DHT22;27703;51.980;5.848;2022-09-29T04:18:43;7.80;99.90
42019;DHT22;27703;51.980;5.848;2022-09-29T04:21:10;7.80;99.90
42019;DHT22;27703;51.980;5.848;2022-09-29T04:23:35;7.70;99.90
42019;DHT22;27703;51.980;5.848;2022-09-29T04:26:02;7.70;99.90
42019;DHT22;27703;51.980;5.848;2022-09-29T04:28:30;7.70;99.90
42019;DHT22;27703;51.980;5.848;2022-09-29T04:30:55;7.70;99.90
42019;DHT22;27703;51.980;5.848;2022-09-29T04:33:21;7.70;99.90
42019;DHT22;27703;51.980;5.848;2022-09-29T04:35:46;7.80;99.90
42019;DHT22;27703;51.980;5.848;2022-09-29T04:38:12;7.80;99.90
42019;DHT22;27703;51.980;5.848;2022-09-29T04:40:37;7.80;99.90
42019;DHT22;27703;51.980;5.848;2022-09-29T04:43:03;7.90;99.90
42019;DHT22;27703;51.980;5.848;2022-09-29T04:45:30;7.90;99.90
42019;DHT22;27703;51.980;5.848;2022-09-29T04:47:56;7.90;99.90
42019;DHT22;27703;51.980;5.848;2022-09-29T04:50:22;8.00;99.90
42019;DHT22;27703;51.980;5.848;2022-09-29T04:52:48;8.00;99.90
42019;DHT22;27703;51.980;5.848;2022-09-29T04:55:14;8.10;99.90
42019;DHT22;27703;51.980;5.848;2022-09-29T04:57:43;8.10;99.90
42019;DHT22;27703;51.980;5.848;2022-09-29T05:00:09;8.10;99.90
42019;DHT22;27703;51.980;5.848;2022-09-29T05:02:35;8.20;99.90
42019;DHT22;27703;51.980;5.848;2022-09-29T05:05:01;8.20;99.90
42019;DHT22;27703;51.980;5.848;2022-09-29T05:07:27;8.20;99.90
42019;DHT22;27703;51.980;5.848;2022-09-29T05:09:53;8.20;99.90
42019;DHT22;27703;51.980;5.848;2022-09-29T05:12:19;8.20;99.90
42019;DHT22;27703;51.980;5.848;2022-09-29T05:14:45;8.20;99.90
42019;DHT22;27703;51.980;5.848;2022-09-29T05:17:11;8.30;99.90
42019;DHT22;27703;51.980;5.848;2022-09-29T05:19:37;8.20;99.90
42019;DHT22;27703;51.980;5.848;2022-09-29T05:22:02;8.20;99.90
42019;DHT22;27703;51.980;5.848;2022-09-29T05:24:28;8.20;99.90
42019;DHT22;27703;51.980;5.848;2022-09-29T05:26:54;8.20;99.90
42019;DHT22;27703;51.980;5.848;2022-09-29T05:29:19;8.20;99.90
42019;DHT22;27703;51.980;5.848;2022-09-29T05:31:45;8.20;99.90
42019;DHT22;27703;51.980;5.848;2022-09-29T05:34:11;8.20;99.90
42019;DHT22;27703;51.980;5.848;2022-09-29T05:36:36;8.20;99.90
42019;DHT22;27703;51.980;5.848;2022-09-29T05:39:02;8.20;99.90
42019;DHT22;27703;51.980;5.848;2022-09-29T05:41:27;8.20;99.90
42019;DHT22;27703;51.980;5.848;2022-09-29T05:43:54;8.30;99.90
42019;DHT22;27703;51.980;5.848;2022-09-29T05:46:20;8.20;99.90
42019;DHT22;27703;51.980;5.848;2022-09-29T05:48:47;8.20;99.90
42019;DHT22;27703;51.980;5.848;2022-09-29T05:51:15;8.20;99.90
42019;DHT22;27703;51.980;5.848;2022-09-29T05:53:41;8.20;99.90
42019;DHT22;27703;51.980;5.848;2022-09-29T05:56:09;8.20;99.90
42019;DHT22;27703;51.980;5.848;2022-09-29T05:58:35;8.20;99.90
42019;DHT22;27703;51.980;5.848;2022-09-29T06:01:09;8.10;99.90
42019;DHT22;27703;51.980;5.848;2022-09-29T06:03:36;8.20;99.90
42019;DHT22;27703;51.980;5.848;2022-09-29T06:06:15;8.10;99.90
42019;DHT22;27703;51.980;5.848;2022-09-29T06:08:42;8.20;99.90
42019;DHT22;27703;51.980;5.848;2022-09-29T06:11:17;8.20;99.90
42019;DHT22;27703;51.980;5.848;2022-09-29T06:13:45;8.10;99.90
42019;DHT22;27703;51.980;5.848;2022-09-29T06:16:13;8.10;99.90
42019;DHT22;27703;51.980;5.848;2022-09-29T06:18:39;8.20;99.90
42019;DHT22;27703;51.980;5.848;2022-09-29T06:21:07;8.10;99.90
42019;DHT22;27703;51.980;5.848;2022-09-29T06:23:33;8.20;99.90
42019;DHT22;27703;51.980;5.848;2022-09-29T06:26:01;8.20;99.90
42019;DHT22;27703;51.980;5.848;2022-09-29T06:28:27;8.20;99.90
42019;DHT22;27703;51.980;5.848;2022-09-29T06:31:01;8.20;99.90
42019;DHT22;27703;51.980;5.848;2022-09-29T06:33:28;8.20;99.90
42019;DHT22;27703;51.980;5.848;2022-09-29T06:35:54;8.20;99.90
42019;DHT22;27703;51.980;5.848;2022-09-29T06:38:39;8.20;99.90
42019;DHT22;27703;51.980;5.848;2022-09-29T06:41:04;8.20;99.90
42019;DHT22;27703;51.980;5.848;2022-09-29T06:43:30;8.20;99.90
42019;DHT22;27703;51.980;5.848;2022-09-29T06:45:56;8.20;99.90
42019;DHT22;27703;51.980;5.848;2022-09-29T06:48:24;8.20;99.90
42019;DHT22;27703;51.980;5.848;2022-09-29T06:50:50;8.30;99.90
42019;DHT22;27703;51.980;5.848;2022-09-29T06:53:15;8.30;99.90
42019;DHT22;27703;51.980;5.848;2022-09-29T06:55:41;8.30;99.90
42019;DHT22;27703;51.980;5.848;2022-09-29T06:58:06;8.30;99.90
42019;DHT22;27703;51.980;5.848;2022-09-29T07:00:33;8.30;99.90
42019;DHT22;27703;51.980;5.848;2022-09-29T07:02:59;8.30;99.90
42019;DHT22;27703;51.980;5.848;2022-09-29T07:05:25;8.30;99.90
42019;DHT22;27703;51.980;5.848;2022-09-29T07:07:50;8.30;99.90
42019;DHT22;27703;51.980;5.848;2022-09-29T07:10:16;8.30;99.90
42019;DHT22;27703;51.980;5.848;2022-09-29T07:12:41;8.40;99.90
42019;DHT22;27703;51.980;5.848;2022-09-29T07:15:11;8.40;99.90
42019;DHT22;27703;51.980;5.848;2022-09-29T07:17:37;8.40;99.90
42019;DHT22;27703;51.980;5.848;2022-09-29T07:20:03;8.30;99.90
42019;DHT22;27703;51.980;5.848;2022-09-29T07:22:29;8.30;99.90
42019;DHT22;27703;51.980;5.848;2022-09-29T07:24:54;8.20;99.90
42019;DHT22;27703;51.980;5.848;2022-09-29T07:27:20;8.20;99.90
42019;DHT22;27703;51.980;5.848;2022-09-29T07:29:49;8.30;99.90
42019;DHT22;27703;51.980;5.848;2022-09-29T07:32:14;8.30;99.90
42019;DHT22;27703;51.980;5.848;2022-09-29T07:34:40;8.40;99.90
42019;DHT22;27703;51.980;5.848;2022-09-29T07:37:05;8.50;99.90
42019;DHT22;27703;51.980;5.848;2022-09-29T07:39:31;8.60;99.90
42019;DHT22;27703;51.980;5.848;2022-09-29T07:41:57;8.60;99.90
42019;DHT22;27703;51.980;5.848;2022-09-29T07:44:23;8.60;99.90
42019;DHT22;27703;51.980;5.848;2022-09-29T07:46:48;8.60;99.90
42019;DHT22;27703;51.980;5.848;2022-09-29T07:49:14;8.60;99.90
42019;DHT22;27703;51.980;5.848;2022-09-29T07:51:40;8.70;99.90
42019;DHT22;27703;51.980;5.848;2022-09-29T07:54:06;8.60;99.90
42019;DHT22;27703;51.980;5.848;2022-09-29T07:56:31;8.70;99.90
42019;DHT22;27703;51.980;5.848;2022-09-29T07:58:57;8.70;99.90
42019;DHT22;27703;51.980;5.848;2022-09-29T08:01:23;8.80;99.90
42019;DHT22;27703;51.980;5.848;2022-09-29T08:03:54;8.80;99.90
42019;DHT22;27703;51.980;5.848;2022-09-29T08:06:21;8.90;99.90
42019;DHT22;27703;51.980;5.848;2022-09-29T08:08:47;8.90;99.90
42019;DHT22;27703;51.980;5.848;2022-09-29T08:11:16;9.00;99.90
42019;DHT22;27703;51.980;5.848;2022-09-29T08:13:41;9.10;99.90
42019;DHT22;27703;51.980;5.848;2022-09-29T08:16:10;9.00;99.90
42019;DHT22;27703;51.980;5.848;2022-09-29T08:18:37;9.00;99.90
42019;DHT22;27703;51.980;5.848;2022-09-29T08:21:03;9.00;99.90
42019;DHT22;27703;51.980;5.848;2022-09-29T08:23:33;9.10;99.90
42019;DHT22;27703;51.980;5.848;2022-09-29T08:26:14;9.10;99.90
42019;DHT22;27703;51.980;5.848;2022-09-29T08:28:40;9.20;99.90
42019;DHT22;27703;51.980;5.848;2022-09-29T08:31:09;9.10;99.90
42019;DHT22;27703;51.980;5.848;2022-09-29T08:33:36;9.10;99.90
42019;DHT22;27703;51.980;5.848;2022-09-29T08:36:02;9.10;99.90
42019;DHT22;27703;51.980;5.848;2022-09-29T08:38:30;9.10;99.90
42019;DHT22;27703;51.980;5.848;2022-09-29T08:41:02;9.10;99.90
42019;DHT22;27703;51.980;5.848;2022-09-29T08:43:39;9.20;99.90
42019;DHT22;27703;51.980;5.848;2022-09-29T08:49:30;9.30;99.90
42019;DHT22;27703;51.980;5.848;2022-09-29T08:52:03;9.30;99.90
42019;DHT22;27703;51.980;5.848;2022-09-29T08:54:33;9.40;99.90
42019;DHT22;27703;51.980;5.848;2022-09-29T08:57:00;9.50;99.90
42019;DHT22;27703;51.980;5.848;2022-09-29T08:59:27;9.50;99.90
42019;DHT22;27703;51.980;5.848;2022-09-29T09:04:45;9.70;99.90
42019;DHT22;27703;51.980;5.848;2022-09-29T09:15:44;10.20;99.90
42019;DHT22;27703;51.980;5.848;2022-09-29T09:21:29;10.20;99.90
42019;DHT22;27703;51.980;5.848;2022-09-29T09:24:17;10.40;99.90
42019;DHT22;27703;51.980;5.848;2022-09-29T09:26:46;10.60;99.90
42019;DHT22;27703;51.980;5.848;2022-09-29T09:29:20;10.70;99.90
42019;DHT22;27703;51.980;5.848;2022-09-29T09:32:10;10.90;99.90
42019;DHT22;27703;51.980;5.848;2022-09-29T09:34:45;11.00;99.90
42019;DHT22;27703;51.980;5.848;2022-09-29T09:37:20;11.10;99.90
42019;DHT22;27703;51.980;5.848;2022-09-29T09:39:55;11.20;99.90
42019;DHT22;27703;51.980;5.848;2022-09-29T09:42:28;11.30;99.90
42019;DHT22;27703;51.980;5.848;2022-09-29T09:45:13;11.50;99.90
42019;DHT22;27703;51.980;5.848;2022-09-29T09:47:47;11.70;99.90
42019;DHT22;27703;51.980;5.848;2022-09-29T09:50:16;11.80;99.90
42019;DHT22;27703;51.980;5.848;2022-09-29T09:52:50;11.90;99.90
42019;DHT22;27703;51.980;5.848;2022-09-29T09:55:21;12.00;99.90
42019;DHT22;27703;51.980;5.848;2022-09-29T10:00:24;12.20;99.90
42019;DHT22;27703;51.980;5.848;2022-09-29T10:02:53;12.30;99.90
42019;DHT22;27703;51.980;5.848;2022-09-29T10:08:09;12.40;99.90
42019;DHT22;27703;51.980;5.848;2022-09-29T10:10:40;12.50;99.90
42019;DHT22;27703;51.980;5.848;2022-09-29T10:13:09;12.60;99.90
42019;DHT22;27703;51.980;5.848;2022-09-29T10:20:47;12.80;99.90
42019;DHT22;27703;51.980;5.848;2022-09-29T10:23:26;12.90;99.90
42019;DHT22;27703;51.980;5.848;2022-09-29T10:28:26;13.10;99.90
42019;DHT22;27703;51.980;5.848;2022-09-29T10:30:53;13.30;99.90
42019;DHT22;27703;51.980;5.848;2022-09-29T10:33:22;13.40;99.90
42019;DHT22;27703;51.980;5.848;2022-09-29T10:35:49;13.60;99.90
42019;DHT22;27703;51.980;5.848;2022-09-29T10:38:25;13.80;99.90
42019;DHT22;27703;51.980;5.848;2022-09-29T10:40:56;13.90;99.90
42019;DHT22;27703;51.980;5.848;2022-09-29T10:43:27;14.00;99.90
42019;DHT22;27703;51.980;5.848;2022-09-29T10:45:56;14.00;99.90
42019;DHT22;27703;51.980;5.848;2022-09-29T10:48:24;14.20;99.90
42019;DHT22;27703;51.980;5.848;2022-09-29T10:50:57;14.40;99.90
42019;DHT22;27703;51.980;5.848;2022-09-29T10:53:40;14.50;99.90
42019;DHT22;27703;51.980;5.848;2022-09-29T10:56:16;14.70;99.90
42019;DHT22;27703;51.980;5.848;2022-09-29T10:58:53;14.80;99.90
42019;DHT22;27703;51.980;5.848;2022-09-29T11:01:19;14.70;99.90
42019;DHT22;27703;51.980;5.848;2022-09-29T11:04:12;14.70;99.90
42019;DHT22;27703;51.980;5.848;2022-09-29T11:06:39;14.70;99.90
42019;DHT22;27703;51.980;5.848;2022-09-29T11:09:25;14.60;99.90
42019;DHT22;27703;51.980;5.848;2022-09-29T11:11:52;14.60;99.90
42019;DHT22;27703;51.980;5.848;2022-09-29T11:14:40;14.60;99.90
42019;DHT22;27703;51.980;5.848;2022-09-29T11:17:28;14.70;99.90
42019;DHT22;27703;51.980;5.848;2022-09-29T11:20:00;14.80;99.90
42019;DHT22;27703;51.980;5.848;2022-09-29T11:33:56;14.90;99.90
42019;DHT22;27703;51.980;5.848;2022-09-29T11:45:39;15.10;99.00
42019;DHT22;27703;51.980;5.848;2022-09-29T11:48:29;15.20;98.80
42019;DHT22;27703;51.980;5.848;2022-09-29T11:57:06;15.50;98.20
42019;DHT22;27703;51.980;5.848;2022-09-29T11:59:54;15.60;98.50
42019;DHT22;27703;51.980;5.848;2022-09-29T12:02:39;15.80;98.30
42019;DHT22;27703;51.980;5.848;2022-09-29T12:13:47;16.20;97.60
42019;DHT22;27703;51.980;5.848;2022-09-29T12:16:25;16.30;97.80
42019;DHT22;27703;51.980;5.848;2022-09-29T12:19:07;16.30;97.10
42019;DHT22;27703;51.980;5.848;2022-09-29T12:21:38;16.30;96.80
42019;DHT22;27703;51.980;5.848;2022-09-29T12:24:10;16.40;97.10
42019;DHT22;27703;51.980;5.848;2022-09-29T12:26:37;16.50;97.40
42019;DHT22;27703;51.980;5.848;2022-09-29T12:29:08;16.60;97.40
42019;DHT22;27703;51.980;5.848;2022-09-29T12:31:43;16.50;96.30
42019;DHT22;27703;51.980;5.848;2022-09-29T12:34:31;16.50;96.40
42019;DHT22;27703;51.980;5.848;2022-09-29T12:37:15;16.40;95.80
42019;DHT22;27703;51.980;5.848;2022-09-29T12:40:11;16.40;96.10
42019;DHT22;27703;51.980;5.848;2022-09-29T12:45:41;16.50;96.00
42019;DHT22;27703;51.980;5.848;2022-09-29T12:48:14;16.60;95.40
42019;DHT22;27703;51.980;5.848;2022-09-29T12:50:49;16.50;95.40
42019;DHT22;27703;51.980;5.848;2022-09-29T12:56:21;16.70;95.70
42019;DHT22;27703;51.980;5.848;2022-09-29T12:58:50;16.80;95.20
42019;DHT22;27703;51.980;5.848;2022-09-29T13:01:33;16.80;95.00
42019;DHT22;27703;51.980;5.848;2022-09-29T13:12:23;16.80;94.60
42019;DHT22;27703;51.980;5.848;2022-09-29T13:21:03;16.20;94.70
42019;DHT22;27703;51.980;5.848;2022-09-29T13:29:39;15.60;95.90
42019;DHT22;27703;51.980;5.848;2022-09-29T13:32:08;15.50;96.00
42019;DHT22;27703;51.980;5.848;2022-09-29T13:34:37;15.50;96.20
42019;DHT22;27703;51.980;5.848;2022-09-29T13:37:14;15.60;96.30
42019;DHT22;27703;51.980;5.848;2022-09-29T13:39:42;15.80;96.20
42019;DHT22;27703;51.980;5.848;2022-09-29T13:42:38;16.10;96.10
42019;DHT22;27703;51.980;5.848;2022-09-29T13:45:35;16.40;95.90
42019;DHT22;27703;51.980;5.848;2022-09-29T13:50:56;17.60;94.60
42019;DHT22;27703;51.980;5.848;2022-09-29T13:55:52;17.60;93.80
42019;DHT22;27703;51.980;5.848;2022-09-29T13:58:26;17.40;93.70
42019;DHT22;27703;51.980;5.848;2022-09-29T14:00:53;17.30;93.80
42019;DHT22;27703;51.980;5.848;2022-09-29T14:03:43;17.30;93.40
42019;DHT22;27703;51.980;5.848;2022-09-29T14:06:22;17.30;93.30
42019;DHT22;27703;51.980;5.848;2022-09-29T14:08:54;17.30;92.90
42019;DHT22;27703;51.980;5.848;2022-09-29T14:11:29;17.10;92.20
42019;DHT22;27703;51.980;5.848;2022-09-29T14:16:44;16.90;92.30
42019;DHT22;27703;51.980;5.848;2022-09-29T14:19:23;16.90;92.40
42019;DHT22;27703;51.980;5.848;2022-09-29T14:21:55;16.90;92.40
42019;DHT22;27703;51.980;5.848;2022-09-29T14:27:32;17.10;92.00
42019;DHT22;27703;51.980;5.848;2022-09-29T14:33:01;17.20;91.70
42019;DHT22;27703;51.980;5.848;2022-09-29T14:35:36;17.30;91.30
42019;DHT22;27703;51.980;5.848;2022-09-29T14:38:44;17.30;91.70
42019;DHT22;27703;51.980;5.848;2022-09-29T14:43:54;17.30;91.10
42019;DHT22;27703;51.980;5.848;2022-09-29T15:00:23;17.60;91.00
42019;DHT22;27703;51.980;5.848;2022-09-29T15:02:54;17.70;91.20
42019;DHT22;27703;51.980;5.848;2022-09-29T15:05:31;17.80;91.00
42019;DHT22;27703;51.980;5.848;2022-09-29T15:07:58;17.80;91.00
42019;DHT22;27703;51.980;5.848;2022-09-29T15:10:27;17.80;91.10
42019;DHT22;27703;51.980;5.848;2022-09-29T15:13:14;17.80;91.00
42019;DHT22;27703;51.980;5.848;2022-09-29T15:15:42;17.80;90.90
42019;DHT22;27703;51.980;5.848;2022-09-29T15:26:23;17.80;91.30
42019;DHT22;27703;51.980;5.848;2022-09-29T15:28:51;17.70;91.30
42019;DHT22;27703;51.980;5.848;2022-09-29T15:31:24;17.70;91.50
42019;DHT22;27703;51.980;5.848;2022-09-29T15:33:51;17.70;91.60
42019;DHT22;27703;51.980;5.848;2022-09-29T15:36:20;17.70;91.90
42019;DHT22;27703;51.980;5.848;2022-09-29T15:38:50;17.70;91.90
42019;DHT22;27703;51.980;5.848;2022-09-29T15:41:18;17.70;92.00
42019;DHT22;27703;51.980;5.848;2022-09-29T15:46:39;17.70;92.20
42019;DHT22;27703;51.980;5.848;2022-09-29T15:51:44;17.50;92.60
42019;DHT22;27703;51.980;5.848;2022-09-29T15:54:13;17.50;92.80
42019;DHT22;27703;51.980;5.848;2022-09-29T15:56:39;17.50;92.90
42019;DHT22;27703;51.980;5.848;2022-09-29T16:04:42;17.70;93.00
42019;DHT22;27703;51.980;5.848;2022-09-29T16:07:19;17.60;92.90
42019;DHT22;27703;51.980;5.848;2022-09-29T16:09:46;17.60;93.00
42019;DHT22;27703;51.980;5.848;2022-09-29T16:12:16;17.50;93.00
42019;DHT22;27703;51.980;5.848;2022-09-29T16:14:44;17.50;92.70
42019;DHT22;27703;51.980;5.848;2022-09-29T16:17:10;17.30;92.70
42019;DHT22;27703;51.980;5.848;2022-09-29T16:19:37;17.30;92.90
42019;DHT22;27703;51.980;5.848;2022-09-29T16:22:06;17.10;92.90
42019;DHT22;27703;51.980;5.848;2022-09-29T16:24:36;17.10;93.10
42019;DHT22;27703;51.980;5.848;2022-09-29T16:27:44;17.00;93.20
42019;DHT22;27703;51.980;5.848;2022-09-29T16:30:21;16.90;93.40
42019;DHT22;27703;51.980;5.848;2022-09-29T16:33:02;16.90;93.60
42019;DHT22;27703;51.980;5.848;2022-09-29T16:41:06;16.60;94.10
42019;DHT22;27703;51.980;5.848;2022-09-29T16:43:34;16.60;94.20
42019;DHT22;27703;51.980;5.848;2022-09-29T16:46:01;16.50;94.30
42019;DHT22;27703;51.980;5.848;2022-09-29T16:48:30;16.40;94.50
42019;DHT22;27703;51.980;5.848;2022-09-29T16:51:03;16.30;94.60
42019;DHT22;27703;51.980;5.848;2022-09-29T16:53:32;16.20;94.80
42019;DHT22;27703;51.980;5.848;2022-09-29T16:56:17;16.10;94.90
42019;DHT22;27703;51.980;5.848;2022-09-29T16:58:43;16.00;94.90
42019;DHT22;27703;51.980;5.848;2022-09-29T17:01:10;15.90;95.10
42019;DHT22;27703;51.980;5.848;2022-09-29T17:03:38;15.90;95.20
42019;DHT22;27703;51.980;5.848;2022-09-29T17:06:04;15.80;95.30
42019;DHT22;27703;51.980;5.848;2022-09-29T17:08:31;15.70;95.50
42019;DHT22;27703;51.980;5.848;2022-09-29T17:11:00;15.60;95.60
42019;DHT22;27703;51.980;5.848;2022-09-29T17:13:31;15.50;95.70
42019;DHT22;27703;51.980;5.848;2022-09-29T17:15:57;15.50;95.80
42019;DHT22;27703;51.980;5.848;2022-09-29T17:18:23;15.40;95.90
42019;DHT22;27703;51.980;5.848;2022-09-29T17:20:51;15.30;96.00
42019;DHT22;27703;51.980;5.848;2022-09-29T17:23:17;15.20;96.10
42019;DHT22;27703;51.980;5.848;2022-09-29T17:25:44;15.10;96.20
42019;DHT22;27703;51.980;5.848;2022-09-29T17:28:16;15.10;96.30
42019;DHT22;27703;51.980;5.848;2022-09-29T17:30:46;15.00;96.40
42019;DHT22;27703;51.980;5.848;2022-09-29T17:33:15;15.00;96.40
42019;DHT22;27703;51.980;5.848;2022-09-29T17:35:49;15.00;96.50
42019;DHT22;27703;51.980;5.848;2022-09-29T17:38:15;15.00;96.60
42019;DHT22;27703;51.980;5.848;2022-09-29T17:40:55;14.90;96.70
42019;DHT22;27703;51.980;5.848;2022-09-29T17:43:21;14.80;96.80
42019;DHT22;27703;51.980;5.848;2022-09-29T17:45:49;14.80;97.00
42019;DHT22;27703;51.980;5.848;2022-09-29T17:48:15;14.70;97.10
42019;DHT22;27703;51.980;5.848;2022-09-29T17:50:46;14.70;97.20
42019;DHT22;27703;51.980;5.848;2022-09-29T17:53:12;14.60;97.20
42019;DHT22;27703;51.980;5.848;2022-09-29T17:55:40;14.50;97.30
42019;DHT22;27703;51.980;5.848;2022-09-29T17:58:06;14.40;97.40
42019;DHT22;27703;51.980;5.848;2022-09-29T18:00:34;14.40;97.50
42019;DHT22;27703;51.980;5.848;2022-09-29T18:03:06;14.40;97.60
42019;DHT22;27703;51.980;5.848;2022-09-29T18:05:34;14.30;97.70
42019;DHT22;27703;51.980;5.848;2022-09-29T18:07:59;14.20;97.70
42019;DHT22;27703;51.980;5.848;2022-09-29T18:13:07;14.10;98.00
42019;DHT22;27703;51.980;5.848;2022-09-29T18:15:33;14.00;98.10
42019;DHT22;27703;51.980;5.848;2022-09-29T18:18:01;14.00;98.20
42019;DHT22;27703;51.980;5.848;2022-09-29T18:20:29;14.00;98.20
42019;DHT22;27703;51.980;5.848;2022-09-29T18:22:55;14.00;98.20
42019;DHT22;27703;51.980;5.848;2022-09-29T18:25:23;14.00;98.30
42019;DHT22;27703;51.980;5.848;2022-09-29T18:27:49;14.00;98.30
42019;DHT22;27703;51.980;5.848;2022-09-29T18:30:24;14.00;98.40
42019;DHT22;27703;51.980;5.848;2022-09-29T18:32:52;13.90;98.40
42019;DHT22;27703;51.980;5.848;2022-09-29T18:35:23;13.90;98.50
42019;DHT22;27703;51.980;5.848;2022-09-29T18:37:49;13.90;98.60
42019;DHT22;27703;51.980;5.848;2022-09-29T18:40:16;13.80;98.60
42019;DHT22;27703;51.980;5.848;2022-09-29T18:42:47;13.80;98.70
42019;DHT22;27703;51.980;5.848;2022-09-29T18:45:15;13.80;98.80
42019;DHT22;27703;51.980;5.848;2022-09-29T18:47:43;13.80;98.80
42019;DHT22;27703;51.980;5.848;2022-09-29T18:50:14;13.80;98.80
42019;DHT22;27703;51.980;5.848;2022-09-29T18:52:40;13.80;98.90
42019;DHT22;27703;51.980;5.848;2022-09-29T18:55:06;13.70;98.90
42019;DHT22;27703;51.980;5.848;2022-09-29T18:57:32;13.70;99.00
42019;DHT22;27703;51.980;5.848;2022-09-29T18:59:58;13.70;99.00
42019;DHT22;27703;51.980;5.848;2022-09-29T19:02:23;13.70;99.10
42019;DHT22;27703;51.980;5.848;2022-09-29T19:04:51;13.70;99.20
42019;DHT22;27703;51.980;5.848;2022-09-29T19:07:17;13.60;99.20